Time;durP1;ratioP1;P1;durP2;ratioP2;P2;SDS_P1;SDS_P2;PMS_P1;PMS_P2;Temp;Humidity;BMP_temperature;BMP_pressure;BME280_temperature;BME280_humidity;BME280_pressure;Samples;Min_cycle;Max_cycle;Signal;HPM_P1;HPM_P2
2023/12/19 00:00:55;;;;;;;8.48;7.25;;;;;;;0.89;100.00;148892.72;13047868;22;20349;-80
2023/12/19 00:05:57;;;;;;;10.25;7.00;;;;;;;0.86;100.00;148883.75;13047650;22;20023;-80
2023/12/19 00:10:59;;;;;;;8.00;6.50;;;;;;;0.69;100.00;148842.75;13050327;22;20015;-80
2023/12/19 00:16:03;;;;;;;12.98;6.75;;;;;;;0.75;100.00;148856.81;13082077;22;20069;-80
2023/12/19 00:21:05;;;;;;;7.35;6.32;;;;;;;0.86;100.00;148883.75;13078890;22;20008;-80
2023/12/19 00:26:06;;;;;;;8.88;7.40;;;;;;;0.85;100.00;148882.47;13037534;22;20020;-79
2023/12/19 00:31:08;;;;;;;8.13;6.90;;;;;;;0.83;100.00;148877.31;13060649;22;20070;-81
2023/12/19 00:36:17;;;;;;;8.88;6.68;;;;;;;1.27;100.00;148988.81;13048704;22;20357;-79
2023/12/19 00:41:20;;;;;;;10.88;5.90;;;;;;;1.35;100.00;149008.03;13049711;22;20016;-79
2023/12/19 00:46:22;;;;;;;8.55;7.00;;;;;;;1.31;100.00;148997.78;13057348;22;20026;-80
2023/12/19 00:51:23;;;;;;;7.82;5.78;;;;;;;1.24;100.00;148979.88;13029512;22;20015;-81
2023/12/19 00:56:25;;;;;;;8.23;6.85;;;;;;;1.59;100.00;149068.25;13061156;22;20015;-80
2023/12/19 01:01:27;;;;;;;6.88;5.60;;;;;;;1.87;100.00;149138.81;13075385;22;20020;-80
2023/12/19 01:06:29;;;;;;;6.07;4.75;;;;;;;1.97;100.00;149163.16;13023337;22;20019;-80
2023/12/19 01:11:30;;;;;;;6.10;5.50;;;;;;;1.88;100.00;149140.06;13052543;22;20357;-81
2023/12/19 01:16:32;;;;;;;9.80;6.43;;;;;;;2.02;100.00;149177.25;13074303;22;20357;-80
2023/12/19 01:21:34;;;;;;;7.43;5.18;;;;;;;2.22;100.00;149226.00;13074764;22;20015;-79
2023/12/19 01:26:35;;;;;;;6.63;5.35;;;;;;;2.56;97.83;149310.66;13077839;22;20068;-81
2023/12/19 01:31:37;;;;;;;7.50;5.50;;;;;;;2.58;96.00;149315.81;13067670;22;20515;-81
2023/12/19 01:36:41;;;;;;;8.27;5.25;;;;;;;2.27;98.53;149240.13;13062380;22;20042;-79
2023/12/19 01:41:56;;;;;;;6.82;4.55;;;;;;;2.29;97.27;149243.94;13052295;22;20015;-80
2023/12/19 01:46:58;;;;;;;6.10;4.82;;;;;;;2.44;95.43;149282.44;13082504;22;20019;-79
2023/12/19 01:52:00;;;;;;;6.78;5.07;;;;;;;2.42;94.67;149276.00;13072010;22;20094;-80
2023/12/19 01:57:02;;;;;;;8.57;4.53;;;;;;;2.28;96.70;149241.38;13039757;22;20023;-80
2023/12/19 02:02:03;;;;;;;6.28;5.32;;;;;;;2.31;96.39;149249.09;13066111;22;20034;-80
2023/12/19 02:07:05;;;;;;;4.50;4.10;;;;;;;2.38;95.17;149265.75;13088391;22;20019;-80
2023/12/19 02:12:08;;;;;;;8.82;4.28;;;;;;;2.30;94.75;149245.22;13024093;22;20027;-80
2023/12/19 02:17:11;;;;;;;8.07;5.22;;;;;;;2.18;95.15;149217.03;13066198;22;20323;-80
2023/12/19 02:22:13;;;;;;;6.25;4.43;;;;;;;2.35;93.60;149258.09;13065552;22;20039;-79
2023/12/19 02:27:19;;;;;;;4.85;3.70;;;;;;;2.49;92.82;149294.00;13079214;22;20019;-81
2023/12/19 02:32:21;;;;;;;4.95;4.35;;;;;;;2.37;92.02;149263.19;13043515;22;20023;-82
2023/12/19 02:37:22;;;;;;;5.22;4.35;;;;;;;1.99;94.59;149168.25;13071932;22;20087;-82
2023/12/19 02:42:24;;;;;;;5.85;4.38;;;;;;;1.98;94.80;149165.72;13065866;22;20023;-79
2023/12/19 02:47:26;;;;;;;5.90;4.03;;;;;;;2.16;94.05;149211.88;13098762;22;20015;-81
2023/12/19 02:52:28;;;;;;;9.18;4.43;;;;;;;1.86;96.28;149136.25;13045682;22;20019;-81
2023/12/19 02:57:30;;;;;;;9.32;4.70;;;;;;;1.80;95.70;149120.84;13068679;22;20011;-83
2023/12/19 03:02:31;;;;;;;5.53;3.67;;;;;;;2.11;95.06;149197.78;13077381;22;20015;-82
2023/12/19 03:07:33;;;;;;;5.75;4.05;;;;;;;1.97;95.06;149163.16;13069907;22;20015;-82
2023/12/19 03:12:35;;;;;;;8.63;3.80;;;;;;;1.77;95.89;149113.13;13067556;22;20077;-82
2023/12/19 03:17:37;;;;;;;3.78;3.33;;;;;;;1.60;96.77;149069.59;13093144;22;20018;-81
2023/12/19 03:22:39;;;;;;;5.32;3.80;;;;;;;2.04;94.62;149181.13;13105338;22;20070;-81
2023/12/19 03:27:41;;;;;;;6.40;3.85;;;;;;;1.89;93.55;149142.63;13080931;22;20015;-81
2023/12/19 03:32:43;;;;;;;5.50;3.55;;;;;;;1.65;95.83;149083.66;13079680;22;20019;-82
2023/12/19 03:37:45;;;;;;;5.55;3.58;;;;;;;1.86;95.28;149134.94;13087656;22;20464;-82
2023/12/19 03:42:47;;;;;;;3.65;2.88;;;;;;;2.15;93.06;149208.03;13074594;22;20022;-83
2023/12/19 03:47:48;;;;;;;4.93;3.00;;;;;;;2.11;92.29;149197.78;13072720;22;20019;-81
2023/12/19 03:52:50;;;;;;;4.50;3.42;;;;;;;2.34;89.49;149255.47;13074099;22;20019;-81
2023/12/19 03:57:52;;;;;;;2.63;2.08;;;;;;;2.14;90.23;149206.75;13079501;22;20011;-82
2023/12/19 04:02:53;;;;;;;3.03;2.25;;;;;;;2.37;89.00;149264.47;13077611;22;20068;-81
2023/12/19 04:07:55;;;;;;;2.40;2.13;;;;;;;2.83;83.91;149378.66;13071088;22;20015;-82
2023/12/19 04:12:57;;;;;;;4.75;2.92;;;;;;;2.99;82.37;149421.00;13070471;22;20098;-82
2023/12/19 04:17:59;;;;;;;2.78;1.83;;;;;;;2.73;83.14;149355.56;13070698;22;20018;-81
2023/12/19 04:23:02;;;;;;;3.25;2.22;;;;;;;3.30;79.48;149498.03;13016906;22;20130;-82
2023/12/19 04:28:04;;;;;;;3.05;2.50;;;;;;;3.21;80.63;149476.19;13069409;22;20022;-82
2023/12/19 04:33:05;;;;;;;4.03;3.10;;;;;;;3.34;80.31;149507.03;13081006;22;20020;-79
2023/12/19 04:38:07;;;;;;;4.13;3.08;;;;;;;3.15;82.81;149459.53;13089208;22;20433;-81
2023/12/19 04:43:09;;;;;;;3.65;2.38;;;;;;;3.22;82.73;149477.47;13077856;22;20048;-81
2023/12/19 04:48:11;;;;;;;3.22;2.63;;;;;;;3.48;79.65;149542.97;13041436;22;20039;-81
2023/12/19 04:53:13;;;;;;;2.50;2.17;;;;;;;3.41;78.38;149526.28;13066778;22;20457;-80
2023/12/19 04:58:14;;;;;;;3.33;2.35;;;;;;;3.45;80.01;149535.25;13038799;22;20078;-81
2023/12/19 05:03:16;;;;;;;4.25;2.85;;;;;;;3.57;79.91;149566.06;13045264;22;20526;-80
2023/12/19 05:08:18;;;;;;;3.85;3.05;;;;;;;3.19;81.71;149469.81;13055528;22;20023;-82
2023/12/19 05:13:19;;;;;;;5.03;3.83;;;;;;;3.06;83.02;149437.72;13067129;22;20449;-81
2023/12/19 05:18:21;;;;;;;2.78;2.35;;;;;;;3.33;83.17;149505.75;13068579;22;20090;-83
2023/12/19 05:23:23;;;;;;;4.75;3.15;;;;;;;3.08;84.90;149441.53;13066711;22;20015;-82
2023/12/19 05:28:25;;;;;;;3.88;2.95;;;;;;;2.87;85.81;149388.91;13072799;22;20011;-83
2023/12/19 05:33:27;;;;;;;4.65;2.95;;;;;;;2.89;86.24;149395.34;13071060;22;20094;-82
2023/12/19 05:38:32;;;;;;;5.15;3.17;;;;;;;2.84;85.83;149382.53;13068262;22;20301;-81
2023/12/19 05:43:34;;;;;;;5.53;3.67;;;;;;;2.46;88.02;149286.28;13069172;22;20065;-82
2023/12/19 05:48:36;;;;;;;4.40;3.85;;;;;;;2.78;86.36;149368.38;13067415;22;20016;-82
2023/12/19 05:53:38;;;;;;;4.25;3.78;;;;;;;2.83;86.90;149379.94;13066109;22;20015;-81
2023/12/19 05:58:40;;;;;;;5.32;3.15;;;;;;;2.59;87.41;149319.63;13043485;22;20039;-80
2023/12/19 06:03:42;;;;;;;3.92;3.05;;;;;;;2.43;89.10;149278.56;13071786;22;20026;-81
2023/12/19 06:08:43;;;;;;;4.90;3.80;;;;;;;2.67;88.50;149338.91;13070444;22;20022;-81
2023/12/19 06:13:45;;;;;;;4.88;3.65;;;;;;;2.70;88.77;149346.56;13069666;22;20038;-82
2023/12/19 06:18:47;;;;;;;4.72;4.20;;;;;;;2.55;91.65;149309.38;13042781;22;20022;-82
2023/12/19 06:23:49;;;;;;;4.25;3.47;;;;;;;2.45;91.47;149285.00;13070723;22;20019;-83
2023/12/19 06:28:51;;;;;;;4.18;3.30;;;;;;;2.40;91.47;149270.91;13071110;22;20363;-81
2023/12/19 06:33:52;;;;;;;5.63;4.60;;;;;;;2.50;91.89;149297.81;13070554;22;20026;-81
2023/12/19 06:38:55;;;;;;;4.25;3.75;;;;;;;2.58;91.53;149315.81;13069957;22;20015;-81
2023/12/19 06:43:56;;;;;;;9.70;4.25;;;;;;;2.52;91.54;149302.97;13078217;22;20015;-79
2023/12/19 06:48:58;;;;;;;4.28;3.53;;;;;;;2.63;89.61;149329.91;13074605;22;20015;-81
2023/12/19 06:54:00;;;;;;;4.00;3.03;;;;;;;2.85;87.34;149385.09;13089876;22;20015;-80
2023/12/19 06:59:02;;;;;;;3.97;3.58;;;;;;;2.72;87.35;149351.72;13082548;22;20044;-80
2023/12/19 07:04:04;;;;;;;5.05;3.85;;;;;;;2.51;88.97;149300.38;13087884;22;20022;-81
2023/12/19 07:09:06;;;;;;;4.75;3.30;;;;;;;2.99;85.79;149419.72;13073644;22;20034;-80
2023/12/19 07:14:07;;;;;;;5.60;3.58;;;;;;;2.79;86.74;149369.72;13054995;22;20026;-81
2023/12/19 07:19:10;;;;;;;6.15;4.35;;;;;;;3.15;86.10;149460.81;13043442;22;20022;-82
2023/12/19 07:24:11;;;;;;;5.55;3.88;;;;;;;2.99;87.54;149419.72;13071029;22;20046;-81
2023/12/19 07:29:13;;;;;;;5.82;4.30;;;;;;;2.89;87.90;149395.34;13073187;22;20453;-81
2023/12/19 07:34:15;;;;;;;5.10;4.00;;;;;;;3.20;85.60;149472.38;13072314;22;20346;-81
2023/12/19 07:39:17;;;;;;;6.35;3.65;;;;;;;3.32;84.70;149503.19;13072046;22;20016;-80
2023/12/19 07:44:19;;;;;;;8.52;3.75;;;;;;;3.15;86.04;149460.81;13045175;22;20020;-81
2023/12/19 07:49:21;;;;;;;4.85;3.85;;;;;;;3.27;84.81;149491.59;13043939;22;20022;-81
2023/12/19 07:54:23;;;;;;;5.90;3.40;;;;;;;3.43;84.90;149531.41;13044457;22;20532;-81
2023/12/19 07:59:25;;;;;;;4.65;3.47;;;;;;;3.57;82.94;149566.06;13073691;22;20011;-81
2023/12/19 08:04:26;;;;;;;4.07;3.47;;;;;;;3.43;83.56;149531.41;13109638;22;20047;-81
2023/12/19 08:09:29;;;;;;;4.57;3.85;;;;;;;3.43;84.92;149530.13;13111034;22;20010;-81
2023/12/19 08:14:31;;;;;;;4.65;3.22;;;;;;;3.44;83.98;149532.69;13085648;22;20089;-80
2023/12/19 08:19:33;;;;;;;4.53;3.63;;;;;;;3.70;81.29;149599.44;13085392;22;20012;-80
2023/12/19 08:24:34;;;;;;;4.10;3.05;;;;;;;3.75;78.71;149611.00;13081333;22;20368;-79
2023/12/19 08:29:36;;;;;;;3.42;2.60;;;;;;;4.08;74.20;149693.25;13095020;22;20324;-80
2023/12/19 08:34:41;;;;;;;3.97;2.72;;;;;;;4.26;74.16;149740.75;13083152;22;20023;-81
2023/12/19 08:39:42;;;;;;;6.13;3.03;;;;;;;4.23;74.04;149731.75;13071684;22;20015;-80
2023/12/19 08:44:44;;;;;;;4.18;2.88;;;;;;;4.61;72.89;149826.84;13044051;22;20019;-81
2023/12/19 08:49:46;;;;;;;6.15;4.35;;;;;;;4.74;73.05;149861.56;13043150;22;20011;-81
2023/12/19 08:54:48;;;;;;;6.30;4.88;;;;;;;4.71;73.15;149853.81;13045375;22;20027;-79
2023/12/19 08:59:50;;;;;;;5.78;5.10;;;;;;;4.67;74.23;149843.53;13068624;22;20020;-82
2023/12/19 09:04:51;;;;;;;4.97;3.92;;;;;;;4.80;74.93;149875.69;13040847;22;20019;-80
2023/12/19 09:09:56;;;;;;;9.30;4.25;;;;;;;4.88;73.25;149896.25;13068293;22;20062;-81
2023/12/19 09:14:58;;;;;;;4.55;3.90;;;;;;;4.94;73.39;149910.38;13071576;22;20072;-80
2023/12/19 09:20:04;;;;;;;5.80;4.75;;;;;;;4.68;75.58;149844.81;13092758;22;20012;-80
2023/12/19 09:25:14;;;;;;;5.40;3.97;;;;;;;4.91;74.38;149902.66;13093285;22;20034;-80
2023/12/19 09:30:17;;;;;;;4.43;3.53;;;;;;;5.40;70.29;150027.41;13074140;22;20016;-82
2023/12/19 09:35:19;;;;;;;4.55;3.45;;;;;;;5.21;73.28;149978.50;13045488;22;20388;-84
2023/12/19 09:40:27;;;;;;;4.78;3.42;;;;;;;5.19;72.99;149973.41;13073246;22;20464;-82
2023/12/19 09:45:29;;;;;;;4.05;3.40;;;;;;;5.55;71.99;150064.69;13048679;22;20026;-80
2023/12/19 09:50:36;;;;;;;4.80;3.72;;;;;;;6.02;70.08;150184.38;13095179;22;20034;-82
2023/12/19 09:55:43;;;;;;;5.20;3.55;;;;;;;5.90;70.41;150153.44;13093687;22;20040;-79
2023/12/19 10:00:46;;;;;;;5.13;3.72;;;;;;;5.99;72.07;150175.38;13085065;22;20015;-80
2023/12/19 10:05:47;;;;;;;7.40;4.63;;;;;;;6.41;68.39;150282.13;13078385;22;20018;-83
2023/12/19 10:10:57;;;;;;;5.15;4.15;;;;;;;6.41;68.99;150282.13;13046423;22;20015;-82
2023/12/19 10:16:00;;;;;;;4.22;3.78;;;;;;;6.24;69.66;150238.38;13071815;22;20091;-79
2023/12/19 10:21:24;;;;;;;3.83;2.88;;;;;;;6.49;65.47;150302.75;13040702;22;20015;-79
2023/12/19 10:26:29;;;;;;;5.40;3.20;;;;;;;6.50;66.89;150305.31;13070867;22;20016;-80
2023/12/19 10:31:33;;;;;;;3.45;3.15;;;;;;;6.82;67.01;150385.16;13041473;22;20038;-80
2023/12/19 10:36:35;;;;;;;4.07;2.88;;;;;;;6.72;67.45;150359.38;13068488;22;20015;-79
2023/12/19 10:41:39;;;;;;;1.52;1.13;;;;;;;7.50;53.39;150556.41;13067367;22;20011;-80
2023/12/19 10:46:41;;;;;;;0.80;0.70;;;;;;;7.84;52.04;150644.00;13070340;22;20015;-80
2023/12/19 10:51:50;;;;;;;1.20;1.00;;;;;;;8.03;50.74;150691.69;13069158;22;20015;-80
2023/12/19 10:57:06;;;;;;;0.93;0.77;;;;;;;8.31;47.56;150762.56;13068624;22;20085;-79
2023/12/19 11:02:11;;;;;;;0.98;0.90;;;;;;;8.06;51.09;150698.16;13067757;22;20384;-79
2023/12/19 11:07:14;;;;;;;1.77;1.10;;;;;;;8.15;48.37;150720.06;13068942;22;20026;-80
2023/12/19 11:12:18;;;;;;;1.65;1.00;;;;;;;8.30;48.87;150759.97;13069201;22;20035;-79
2023/12/19 11:17:32;;;;;;;2.15;1.00;;;;;;;8.25;51.32;150745.81;13041395;22;20015;-80
2023/12/19 11:22:48;;;;;;;1.33;0.95;;;;;;;8.50;49.08;150810.31;13078865;22;20015;-79
2023/12/19 11:27:55;;;;;;;1.45;1.00;;;;;;;8.22;52.45;150739.34;13072777;22;20019;-81
2023/12/19 11:32:57;;;;;;;3.78;1.55;;;;;;;8.52;51.61;150814.19;13073957;22;20011;-81
2023/12/19 11:38:14;;;;;;;1.52;0.98;;;;;;;8.58;53.53;150829.63;13083745;22;20016;-79
2023/12/19 11:43:28;;;;;;;0.80;0.65;;;;;;;8.87;51.31;150901.84;13076361;22;20023;-79
2023/12/19 11:48:37;;;;;;;1.90;0.90;;;;;;;8.97;50.67;150928.91;13076797;22;20011;-78
2023/12/19 11:53:41;;;;;;;1.30;0.80;;;;;;;9.08;50.41;150957.31;13070763;22;20061;-80
2023/12/19 11:58:52;;;;;;;1.70;0.95;;;;;;;9.26;52.75;151001.16;13069710;22;20064;-80
2023/12/19 12:04:12;;;;;;;1.00;0.60;;;;;;;9.36;55.42;151026.94;13071665;22;20392;-78
2023/12/19 12:09:18;;;;;;;1.42;0.70;;;;;;;9.51;55.97;151065.63;13070119;22;20453;-78
2023/12/19 12:14:21;;;;;;;1.15;0.70;;;;;;;9.65;58.01;151099.19;13043382;22;20042;-80
2023/12/19 12:19:23;;;;;;;1.05;0.65;;;;;;;9.96;58.30;151177.88;13075616;22;20011;-80
2023/12/19 12:24:29;;;;;;;0.50;0.50;;;;;;;10.00;59.37;151188.22;13069633;22;20042;-81
2023/12/19 12:29:40;;;;;;;1.33;0.70;;;;;;;9.84;60.72;151149.53;13045049;22;20094;-80
2023/12/19 12:34:44;;;;;;;0.90;0.73;;;;;;;9.97;62.88;151180.50;13090414;22;20457;-81
2023/12/19 12:39:46;;;;;;;0.73;0.50;;;;;;;10.02;64.99;151194.69;13040896;22;20320;-80
2023/12/19 12:44:58;;;;;;;1.23;0.57;;;;;;;10.09;65.43;151212.78;13068630;22;20019;-82
2023/12/19 12:50:03;;;;;;;0.70;0.60;;;;;;;10.24;65.70;151248.91;13067634;22;20449;-81
2023/12/19 12:55:08;;;;;;;0.60;0.60;;;;;;;10.18;66.35;151233.41;13066356;22;20026;-80
2023/12/19 13:00:10;;;;;;;0.68;0.60;;;;;;;10.32;68.53;151269.63;13092168;22;20013;-82
2023/12/19 13:05:27;;;;;;;10.07;0.55;;;;;;;10.28;69.28;151259.28;13099052;22;20015;-81
2023/12/19 13:10:28;;;;;;;0.82;0.60;;;;;;;10.34;70.63;151274.75;13053178;22;20015;-80
2023/12/19 13:15:32;;;;;;;0.50;0.50;;;;;;;10.44;71.66;151300.56;13080252;22;20022;-83
2023/12/19 13:20:34;;;;;;;1.13;0.70;;;;;;;10.51;72.33;151318.66;13068396;22;20015;-80
2023/12/19 13:25:38;;;;;;;1.65;0.70;;;;;;;10.42;73.97;151295.44;13063529;22;20453;-80
2023/12/19 13:30:40;;;;;;;0.60;0.60;;;;;;;10.52;73.79;151319.94;13085881;22;20015;-80
2023/12/19 13:35:44;;;;;;;0.80;0.60;;;;;;;10.52;74.82;151319.94;13070240;22;20019;-79
2023/12/19 13:40:46;;;;;;;1.20;0.60;;;;;;;10.56;74.85;151331.56;13069525;22;20031;-80
2023/12/19 13:45:48;;;;;;;1.05;0.60;;;;;;;10.58;75.32;151335.41;13039802;22;20019;-80
2023/12/19 13:50:50;;;;;;;1.92;0.50;;;;;;;10.51;76.01;151317.38;13067569;22;20023;-80
2023/12/19 13:55:52;;;;;;;0.82;0.70;;;;;;;10.41;76.88;151291.56;13070028;22;20076;-79
2023/12/19 14:00:54;;;;;;;1.10;0.80;;;;;;;10.27;78.30;151256.66;13064484;22;20015;-79
2023/12/19 14:05:58;;;;;;;1.13;0.60;;;;;;;10.32;78.49;151270.91;13064881;22;20019;-81
2023/12/19 14:11:00;;;;;;;1.38;0.68;;;;;;;10.34;78.85;151274.75;13038853;22;20015;-81
2023/12/19 14:16:02;;;;;;;1.40;1.30;;;;;;;10.32;79.22;151270.91;13065351;22;20016;-81
2023/12/19 14:21:04;;;;;;;0.77;0.57;;;;;;;10.41;78.62;151291.56;13070774;22;20030;-80
2023/12/19 14:26:07;;;;;;;1.55;0.70;;;;;;;10.48;78.22;151309.63;13074261;22;20077;-81
2023/12/19 14:31:14;;;;;;;1.58;0.60;;;;;;;10.42;78.75;151294.13;13073240;22;20322;-81
2023/12/19 14:36:16;;;;;;;0.80;0.50;;;;;;;10.31;79.54;151268.34;13072384;22;20022;-81
2023/12/19 14:41:18;;;;;;;0.50;0.40;;;;;;;10.31;79.98;151267.00;13068183;22;20015;-80
2023/12/19 14:46:21;;;;;;;0.70;0.60;;;;;;;10.10;82.08;151215.34;13074263;22;20050;-80
2023/12/19 14:51:23;;;;;;;0.68;0.63;;;;;;;10.22;81.37;151245.00;13044845;22;20034;-80
2023/12/19 14:56:25;;;;;;;1.08;0.47;;;;;;;10.15;82.29;151225.69;13063948;22;20003;-80
2023/12/19 15:01:28;;;;;;;0.90;0.60;;;;;;;10.18;81.61;151234.72;13085879;22;20018;-80
2023/12/19 15:06:30;;;;;;;1.33;0.52;;;;;;;10.12;81.73;151219.22;13088199;22;20015;-82
2023/12/19 15:11:33;;;;;;;0.75;0.60;;;;;;;10.11;81.77;151216.63;13074110;22;20015;-80
2023/12/19 15:16:37;;;;;;;1.95;0.85;;;;;;;10.00;82.71;151189.50;13083518;22;20023;-80
2023/12/19 15:21:39;;;;;;;0.80;0.75;;;;;;;10.06;82.37;151203.75;13085304;22;20011;-80
2023/12/19 15:26:42;;;;;;;0.85;0.60;;;;;;;9.93;82.69;151171.47;13073736;22;20010;-80
2023/12/19 15:31:44;;;;;;;1.38;0.57;;;;;;;9.85;84.53;151150.81;13084027;22;20012;-81
2023/12/19 15:36:46;;;;;;;1.25;0.70;;;;;;;9.88;84.40;151158.56;13057003;22;20026;-81
2023/12/19 15:41:48;;;;;;;0.85;0.80;;;;;;;9.80;85.93;151139.19;13085495;22;20023;-80
2023/12/19 15:46:50;;;;;;;1.33;1.00;;;;;;;9.46;89.14;151051.44;13077695;22;20041;-82
2023/12/19 15:51:52;;;;;;;1.02;0.80;;;;;;;9.34;89.55;151023.09;13076637;22;20027;-79
2023/12/19 15:56:54;;;;;;;1.33;0.77;;;;;;;9.36;87.71;151026.94;13069366;22;20026;-80
2023/12/19 16:01:56;;;;;;;1.10;1.00;;;;;;;9.19;89.97;150984.38;13087988;22;20055;-81
2023/12/19 16:06:58;;;;;;;1.65;1.00;;;;;;;9.14;90.57;150970.19;13104332;22;20030;-80
2023/12/19 16:12:00;;;;;;;1.95;1.15;;;;;;;9.04;92.30;150947.00;13083337;22;20037;-79
2023/12/19 16:17:02;;;;;;;1.52;1.00;;;;;;;9.02;95.58;150940.53;13110987;22;20012;-79
2023/12/19 16:22:04;;;;;;;1.92;1.10;;;;;;;8.91;97.89;150912.19;13099390;22;20020;-80
2023/12/19 16:27:07;;;;;;;1.38;1.23;;;;;;;8.73;100.00;150868.34;13080557;22;20392;-80
2023/12/19 16:32:09;;;;;;;2.03;1.40;;;;;;;8.51;100.00;150811.59;13084435;22;20011;-80
2023/12/19 16:37:11;;;;;;;3.45;1.50;;;;;;;8.45;100.00;150796.09;13050976;22;20023;-80
2023/12/19 16:42:14;;;;;;;1.88;1.20;;;;;;;8.33;100.00;150767.72;13071470;22;20015;-79
2023/12/19 16:47:16;;;;;;;1.65;1.05;;;;;;;8.30;100.00;150759.97;13071466;22;20072;-79
2023/12/19 16:52:19;;;;;;;1.55;1.10;;;;;;;8.24;100.00;150743.25;13071166;22;20457;-79
2023/12/19 16:57:22;;;;;;;1.75;1.20;;;;;;;8.26;100.00;150748.38;13079614;22;20019;-79
2023/12/19 17:02:24;;;;;;;2.20;1.40;;;;;;;8.15;100.00;150720.06;13044594;22;20094;-79
2023/12/19 17:07:26;;;;;;;2.17;1.55;;;;;;;8.03;100.00;150691.69;13070999;22;20515;-79
2023/12/19 17:12:28;;;;;;;2.80;1.35;;;;;;;8.14;100.00;150717.44;13073360;22;20318;-80
2023/12/19 17:17:29;;;;;;;2.33;1.50;;;;;;;8.01;100.00;150686.53;13074151;22;20022;-79
2023/12/19 17:22:31;;;;;;;3.25;1.70;;;;;;;8.01;100.00;150686.53;13074433;22;20015;-80
2023/12/19 17:27:34;;;;;;;2.13;1.48;;;;;;;7.99;100.00;150680.09;13073007;22;20020;-79
2023/12/19 17:32:36;;;;;;;2.85;1.95;;;;;;;7.97;100.00;150674.91;13070946;22;20382;-80
2023/12/19 17:37:39;;;;;;;1.52;1.40;;;;;;;7.76;100.00;150623.41;13072096;22;20020;-80
2023/12/19 17:42:41;;;;;;;2.20;1.40;;;;;;;8.00;100.00;150682.66;13086343;22;20011;-79
2023/12/19 17:47:43;;;;;;;2.15;1.52;;;;;;;8.02;100.00;150687.84;13091665;22;20055;-80
2023/12/19 17:52:45;;;;;;;2.72;2.17;;;;;;;7.91;100.00;150659.47;13073489;22;20067;-80
2023/12/19 17:57:47;;;;;;;2.75;2.28;;;;;;;7.85;100.00;150645.31;13070585;22;20061;-80
2023/12/19 18:02:51;;;;;;;2.28;1.70;;;;;;;7.88;100.00;150651.72;13071691;22;20437;-79
2023/12/19 18:07:54;;;;;;;2.08;1.60;;;;;;;7.81;100.00;150635.00;13069838;22;20043;-79
2023/12/19 18:12:56;;;;;;;3.45;1.75;;;;;;;7.94;100.00;150667.22;13042713;22;20015;-79
2023/12/19 18:17:57;;;;;;;2.17;1.38;;;;;;;7.80;100.00;150632.44;13070396;22;20357;-79
2023/12/19 18:22:59;;;;;;;3.05;1.80;;;;;;;7.73;100.00;150614.38;13070004;22;20012;-80
2023/12/19 18:28:01;;;;;;;3.58;1.98;;;;;;;7.62;100.00;150586.06;13071363;22;20305;-79
2023/12/19 18:33:03;;;;;;;4.07;1.73;;;;;;;7.45;100.00;150544.81;13070961;22;20016;-79
2023/12/19 18:38:05;;;;;;;2.78;2.15;;;;;;;7.39;100.00;150528.03;13045662;22;20373;-79
2023/12/19 18:43:09;;;;;;;2.50;2.10;;;;;;;7.28;100.00;150502.31;13072240;22;20023;-80
2023/12/19 18:48:11;;;;;;;3.97;2.22;;;;;;;7.23;100.00;150489.44;13045429;22;20019;-79
2023/12/19 18:53:12;;;;;;;2.97;1.83;;;;;;;7.20;100.00;150481.69;13070028;22;20011;-79
2023/12/19 18:58:14;;;;;;;2.13;1.60;;;;;;;7.13;100.00;150462.34;13096037;22;20049;-79
2023/12/19 19:03:16;;;;;;;3.75;2.40;;;;;;;7.08;100.00;150450.78;13079755;22;20027;-79
2023/12/19 19:08:18;;;;;;;3.00;1.88;;;;;;;7.04;100.00;150441.81;13080491;22;20011;-80
2023/12/19 19:13:19;;;;;;;3.13;2.17;;;;;;;6.96;100.00;150419.91;13074139;22;20011;-80
2023/12/19 19:18:22;;;;;;;2.30;2.10;;;;;;;6.95;100.00;150417.28;13088539;22;20011;-80
2023/12/19 19:23:24;;;;;;;2.28;1.83;;;;;;;6.87;100.00;150396.75;13074303;22;20098;-81
2023/12/19 19:28:30;;;;;;;2.20;1.70;;;;;;;6.88;100.00;150399.31;13084499;22;20019;-81
2023/12/19 19:33:32;;;;;;;2.95;1.95;;;;;;;6.81;100.00;150382.53;13106190;22;20042;-80
2023/12/19 19:38:34;;;;;;;2.22;1.70;;;;;;;6.80;100.00;150381.25;13105294;22;20015;-78
2023/12/19 19:43:41;;;;;;;2.10;1.77;;;;;;;6.68;100.00;150350.34;13060347;22;20457;-80
2023/12/19 19:48:44;;;;;;;2.13;1.92;;;;;;;6.66;100.00;150343.94;13091596;22;20098;-79
2023/12/19 19:53:46;;;;;;;2.20;1.65;;;;;;;6.66;100.00;150345.22;13075857;22;20112;-80
2023/12/19 19:58:48;;;;;;;1.67;1.58;;;;;;;6.67;100.00;150347.78;13081589;22;20023;-79
2023/12/19 20:03:49;;;;;;;2.80;2.45;;;;;;;6.63;100.00;150337.47;13071249;22;20011;-80
2023/12/19 20:08:52;;;;;;;2.35;1.70;;;;;;;6.69;100.00;150352.97;13070146;22;20074;-81
2023/12/19 20:13:53;;;;;;;3.70;2.00;;;;;;;6.57;100.00;150322.06;13042250;22;20019;-80
2023/12/19 20:18:55;;;;;;;1.85;1.73;;;;;;;6.58;100.00;150325.91;13076824;22;20074;-80
2023/12/19 20:23:57;;;;;;;2.85;2.53;;;;;;;6.55;100.00;150318.22;13073991;22;20026;-82
2023/12/19 20:29:01;;;;;;;2.67;2.15;;;;;;;6.48;100.00;150300.19;13044539;22;20026;-80
2023/12/19 20:34:03;;;;;;;1.67;1.55;;;;;;;6.54;100.00;150314.31;13069612;22;20544;-80
2023/12/19 20:39:05;;;;;;;2.70;2.05;;;;;;;6.52;100.00;150309.19;13079553;22;20019;-81
2023/12/19 20:44:07;;;;;;;2.17;1.90;;;;;;;6.53;100.00;150313.03;13096059;22;20015;-81
2023/12/19 20:49:11;;;;;;;1.70;1.60;;;;;;;6.53;100.00;150311.75;13071808;22;20015;-80
2023/12/19 20:54:15;;;;;;;2.10;1.80;;;;;;;6.57;100.00;150323.34;13072176;22;20090;-81
2023/12/19 20:59:17;;;;;;;2.58;2.10;;;;;;;6.53;100.00;150313.03;13069323;22;20019;-81
2023/12/19 21:04:19;;;;;;;2.17;1.98;;;;;;;6.48;100.00;150300.19;13044391;22;20018;-79
2023/12/19 21:09:21;;;;;;;2.30;1.80;;;;;;;6.49;100.00;150302.75;13071156;22;20026;-81
2023/12/19 21:14:24;;;;;;;3.15;1.70;;;;;;;6.50;100.00;150305.31;13074386;22;20011;-80
2023/12/19 21:19:29;;;;;;;2.13;1.75;;;;;;;6.46;100.00;150293.72;13077983;22;20103;-82
2023/12/19 21:24:31;;;;;;;2.17;1.75;;;;;;;6.50;100.00;150304.03;13062114;22;20012;-79
2023/12/19 21:29:34;;;;;;;1.85;1.52;;;;;;;6.51;100.00;150307.91;13068439;22;20021;-80
2023/12/19 21:34:36;;;;;;;2.08;1.60;;;;;;;6.48;100.00;150298.91;13092972;22;20019;-82
2023/12/19 21:39:38;;;;;;;1.58;1.33;;;;;;;6.55;100.00;150318.22;13076401;22;20015;-81
2023/12/19 21:44:40;;;;;;;1.88;1.65;;;;;;;6.44;100.00;150289.88;13083470;22;20472;-81
2023/12/19 21:49:42;;;;;;;1.70;1.50;;;;;;;6.45;100.00;150292.44;13053051;22;20008;-81
2023/12/19 21:54:44;;;;;;;2.30;1.60;;;;;;;6.44;100.00;150289.88;13086253;22;20015;-81
2023/12/19 21:59:48;;;;;;;2.10;1.73;;;;;;;6.44;100.00;150288.59;13059492;22;20023;-80
2023/12/19 22:04:50;;;;;;;1.80;1.63;;;;;;;6.42;100.00;150284.75;13053711;22;20038;-79
2023/12/19 22:09:53;;;;;;;1.98;1.70;;;;;;;6.36;100.00;150268.00;13026360;22;20357;-81
2023/12/19 22:15:04;;;;;;;2.60;2.40;;;;;;;6.39;100.00;150275.72;13048779;22;20019;-81
2023/12/19 22:20:08;;;;;;;2.40;2.00;;;;;;;6.27;100.00;150247.41;13075563;22;20461;-81
2023/12/19 22:25:11;;;;;;;2.42;2.20;;;;;;;6.18;100.00;150224.25;13072769;22;20083;-81
2023/12/19 22:30:13;;;;;;;1.80;1.70;;;;;;;6.23;100.00;150235.81;13073321;22;20015;-81
2023/12/19 22:35:14;;;;;;;3.67;2.28;;;;;;;6.13;100.00;150211.38;13073307;22;20046;-79
2023/12/19 22:40:16;;;;;;;4.07;2.85;;;;;;;6.12;100.00;150207.53;13105658;22;20020;-78
2023/12/19 22:45:19;;;;;;;2.38;2.10;;;;;;;6.13;100.00;150211.38;13109734;22;20011;-79
2023/12/19 22:50:21;;;;;;;2.47;2.22;;;;;;;6.05;100.00;150190.78;13108603;22;20024;-80
2023/12/19 22:55:24;;;;;;;2.50;2.10;;;;;;;5.98;100.00;150174.09;13055396;22;20050;-81
2023/12/19 23:00:26;;;;;;;2.10;1.75;;;;;;;5.97;100.00;150170.19;13081713;22;20019;-80
2023/12/19 23:05:28;;;;;;;3.33;2.08;;;;;;;5.95;100.00;150165.06;13083590;22;20019;-79
2023/12/19 23:10:30;;;;;;;2.08;1.60;;;;;;;5.94;100.00;150163.78;13085733;22;20023;-78
2023/12/19 23:15:35;;;;;;;2.75;2.25;;;;;;;5.84;100.00;150137.97;13080439;22;20019;-80
2023/12/19 23:20:37;;;;;;;3.15;1.23;;;;;;;5.86;100.00;150141.88;13072381;22;20016;-80